ATH weather

Eleftherios Venizelos International Airport
Athens, Attica, Greece

Public forecast

Using degrees Celsius for public forecast. Weather courtesy of forecast.io.

METAR (pilot weather report)

Retrieved 2018/07/17 00:20 UTC (37 minutes ago):

LGAV 170020Z 23004KT CAVOK 25/14 Q1011 NOSIG

TAF (pilot weather forecast)

Forecast is more than 12 hours old.

Retrieved 2018/07/16 00:12 UTC (1 day ago):

TAF TAF LGAV 162300Z 1700/1724 VRB05KT 9999 FEW030 BECMG 1707/1709 07010KT TEMPO 1712/1715 SCT030